Time;durP1;ratioP1;P1;durP2;ratioP2;P2;SDS_P1;SDS_P2;PMS_P1;PMS_P2;Temp;Humidity;BMP_temperature;BMP_pressure;BME280_temperature;BME280_humidity;BME280_pressure;Samples;Min_cycle;Max_cycle;Signal;HPM_P1;HPM_P2
2023/08/20 00:00:22;;;;;;;6.18;3.40;;;;;;;26.17;49.79;102153.81;5021329;28;20053;-35
2023/08/20 00:02:58;;;;;;;7.63;3.63;;;;;;;26.16;49.73;102154.81;5019263;28;20502;-35
2023/08/20 00:05:25;;;;;;;7.18;4.20;;;;;;;26.16;49.87;102154.81;5020922;28;20050;-35
2023/08/20 00:07:51;;;;;;;6.53;3.67;;;;;;;26.14;49.79;102148.72;5017440;28;20145;-35
2023/08/20 00:10:18;;;;;;;8.55;4.03;;;;;;;26.14;49.92;102151.44;5015377;28;20635;-35
2023/08/20 00:12:44;;;;;;;7.38;4.07;;;;;;;26.13;49.96;102155.19;5018787;28;20049;-35
2023/08/20 00:15:11;;;;;;;7.07;3.45;;;;;;;26.11;49.84;102149.06;5016506;28;20073;-35
2023/08/20 00:17:39;;;;;;;6.68;3.80;;;;;;;26.10;49.92;102150.09;5013063;28;20062;-35
2023/08/20 00:20:18;;;;;;;6.68;4.18;;;;;;;26.09;50.17;102159.25;5015079;28;20056;-35
2023/08/20 00:22:46;;;;;;;8.23;3.80;;;;;;;26.08;50.17;102165.72;5014943;28;20049;-35
2023/08/20 00:25:16;;;;;;;7.68;4.18;;;;;;;26.08;50.10;102182.03;5017989;28;21693;-35
2023/08/20 00:27:43;;;;;;;6.40;3.90;;;;;;;26.07;50.27;102180.34;5019919;28;20060;-34
2023/08/20 00:30:10;;;;;;;7.78;3.92;;;;;;;26.06;50.32;102184.09;5020729;28;20045;-34
2023/08/20 00:32:37;;;;;;;8.80;3.95;;;;;;;26.04;50.21;102184.25;5023721;28;20054;-34
2023/08/20 00:35:04;;;;;;;7.22;3.90;;;;;;;26.02;50.36;102189.00;5020791;28;20045;-34
2023/08/20 00:37:31;;;;;;;6.25;3.63;;;;;;;26.02;50.35;102180.88;5017157;28;20424;-34
2023/08/20 00:39:59;;;;;;;7.03;3.58;;;;;;;26.01;50.29;102181.91;5025411;28;20150;-34
2023/08/20 00:42:26;;;;;;;9.65;3.95;;;;;;;26.00;50.76;102185.59;5022112;28;20136;-34
2023/08/20 00:44:52;;;;;;;7.28;3.83;;;;;;;25.98;50.50;102184.09;5018483;28;20045;-35
2023/08/20 00:47:20;;;;;;;8.07;4.22;;;;;;;25.98;50.50;102184.09;5024386;28;20521;-34
2023/08/20 00:49:48;;;;;;;6.00;3.60;;;;;;;25.96;50.70;102180.69;5024470;28;20045;-35
2023/08/20 00:52:16;;;;;;;7.05;4.03;;;;;;;25.95;50.72;102177.16;5021734;28;20077;-34
2023/08/20 00:54:46;;;;;;;7.57;4.30;;;;;;;25.94;50.73;102183.59;5023882;28;20132;-34
2023/08/20 00:57:18;;;;;;;8.00;3.97;;;;;;;25.93;50.99;102206.38;5021888;28;20076;-35
2023/08/20 00:59:49;;;;;;;7.43;3.78;;;;;;;25.93;50.89;102211.81;5024904;28;20046;-35
2023/08/20 01:02:17;;;;;;;8.73;4.63;;;;;;;25.91;50.81;102207.56;5019685;28;20129;-34
2023/08/20 01:04:46;;;;;;;7.32;4.05;;;;;;;25.90;50.91;102212.13;5019425;28;20128;-34
2023/08/20 01:07:54;;;;;;;6.55;3.55;;;;;;;25.89;51.22;102217.72;5019765;28;20057;-35
2023/08/20 01:10:27;;;;;;;6.10;3.55;;;;;;;25.89;51.06;102221.31;5007522;28;20061;-34
2023/08/20 01:12:53;;;;;;;6.90;3.90;;;;;;;25.88;51.07;102225.03;5020455;28;20116;-34
2023/08/20 01:15:20;;;;;;;6.30;4.00;;;;;;;25.87;51.03;102217.91;5018480;28;20070;-34
2023/08/20 01:17:48;;;;;;;8.45;3.50;;;;;;;25.86;51.14;102216.22;5018982;28;20149;-34
2023/08/20 01:20:16;;;;;;;6.45;3.55;;;;;;;25.85;51.16;102214.53;5022186;28;20045;-34
2023/08/20 01:23:20;;;;;;;7.35;4.07;;;;;;;25.82;51.38;102209.44;5018707;28;20074;-34
2023/08/20 01:26:20;;;;;;;6.10;3.67;;;;;;;25.81;51.46;102213.19;5017740;28;20074;-34
2023/08/20 01:28:47;;;;;;;6.93;3.92;;;;;;;25.81;51.57;102214.03;5020221;28;20173;-34
2023/08/20 01:31:15;;;;;;;6.38;3.75;;;;;;;25.78;51.48;102219.78;5018467;28;20054;-34
2023/08/20 01:33:42;;;;;;;6.15;3.88;;;;;;;25.78;51.72;102221.66;5018441;28;20053;-34
2023/08/20 01:36:11;;;;;;;7.68;3.70;;;;;;;25.77;51.50;102228.06;5017190;28;20136;-34
2023/08/20 01:38:38;;;;;;;7.15;3.92;;;;;;;25.76;51.77;102232.66;5017640;28;20056;-34
2023/08/20 01:41:05;;;;;;;6.93;3.95;;;;;;;25.74;51.60;102234.72;5019724;28;20050;-34
2023/08/20 01:43:31;;;;;;;6.35;3.83;;;;;;;25.75;51.82;102235.56;5026187;28;20061;-34
2023/08/20 01:45:58;;;;;;;6.43;3.72;;;;;;;25.74;51.80;102236.59;5023882;28;20372;-34
2023/08/20 01:48:24;;;;;;;8.05;4.68;;;;;;;25.72;51.99;102233.16;5020668;28;20096;-34
2023/08/20 01:50:51;;;;;;;8.57;4.32;;;;;;;25.71;51.79;102235.03;5022144;28;20470;-34
2023/08/20 01:53:18;;;;;;;5.93;3.72;;;;;;;25.70;51.91;102233.34;5021207;28;20248;-34
2023/08/20 01:55:44;;;;;;;8.93;3.75;;;;;;;25.69;52.12;102228.94;5024170;28;20405;-34
2023/08/20 01:58:11;;;;;;;5.78;3.88;;;;;;;25.68;52.05;102237.25;5021045;28;20046;-34
2023/08/20 02:00:38;;;;;;;7.65;3.60;;;;;;;25.68;52.18;102224.50;5016005;28;20101;-34
2023/08/20 02:03:05;;;;;;;8.05;3.72;;;;;;;25.67;52.18;102228.25;5016896;28;20421;-34
2023/08/20 02:05:32;;;;;;;8.95;4.47;;;;;;;25.65;51.98;102230.31;5016494;28;20052;-34
2023/08/20 02:07:58;;;;;;;5.15;3.40;;;;;;;25.66;52.36;102233.88;5017794;28;20060;-34
2023/08/20 02:10:25;;;;;;;7.53;3.83;;;;;;;25.64;52.49;102234.03;5020452;28;20124;-34
2023/08/20 02:12:52;;;;;;;8.02;3.78;;;;;;;25.64;52.15;102233.19;5022226;28;20076;-34
2023/08/20 02:15:18;;;;;;;9.35;4.32;;;;;;;25.63;52.26;102223.34;5020759;28;20049;-34
2023/08/20 02:17:45;;;;;;;6.32;3.60;;;;;;;25.62;52.48;102221.66;5023025;28;20136;-34
2023/08/20 02:20:11;;;;;;;6.57;3.75;;;;;;;25.61;52.58;102218.09;5020202;28;20337;-34
2023/08/20 02:22:38;;;;;;;6.60;3.80;;;;;;;25.60;52.51;102222.66;5018095;28;20107;-34
2023/08/20 02:25:05;;;;;;;6.47;3.35;;;;;;;25.59;52.60;102218.25;5015558;28;20050;-34
2023/08/20 02:27:31;;;;;;;6.50;3.30;;;;;;;25.59;52.65;102215.53;5016328;28;20433;-34
2023/08/20 02:29:59;;;;;;;6.38;3.60;;;;;;;25.57;52.75;102198.56;5016557;28;20253;-34
2023/08/20 02:32:25;;;;;;;6.63;3.65;;;;;;;25.57;52.65;102211.31;5021033;28;20151;-34
2023/08/20 02:34:53;;;;;;;5.75;3.58;;;;;;;25.56;52.83;102209.59;5018982;28;20088;-34
2023/08/20 02:37:20;;;;;;;6.60;3.42;;;;;;;25.54;52.68;102212.50;5017860;28;20516;-34
2023/08/20 02:39:46;;;;;;;8.35;3.65;;;;;;;25.54;52.64;102214.34;5020651;28;20124;-34
2023/08/20 02:42:13;;;;;;;6.32;3.78;;;;;;;25.53;52.87;102213.50;5017654;28;20085;-34
2023/08/20 02:44:40;;;;;;;7.32;3.58;;;;;;;25.53;53.20;102204.53;5014162;28;20354;-34
2023/08/20 02:47:06;;;;;;;7.03;3.85;;;;;;;25.51;52.94;102207.38;5019768;28;20438;-34
2023/08/20 02:49:33;;;;;;;6.35;3.00;;;;;;;25.51;52.98;102209.25;5014439;28;20289;-34
2023/08/20 02:51:59;;;;;;;4.90;3.17;;;;;;;25.49;53.42;102212.16;5019148;28;20112;-34
2023/08/20 02:54:26;;;;;;;6.80;3.40;;;;;;;25.49;52.89;102219.47;5019293;28;20144;-34
2023/08/20 02:56:52;;;;;;;6.82;3.30;;;;;;;25.47;53.08;102214.19;5019514;28;20054;-34
2023/08/20 02:59:19;;;;;;;4.85;2.95;;;;;;;25.48;52.91;102206.88;5015845;28;20444;-34
2023/08/20 03:01:46;;;;;;;6.43;3.58;;;;;;;25.46;52.86;102214.38;5017990;28;20046;-34
2023/08/20 03:04:12;;;;;;;8.20;3.22;;;;;;;25.44;53.07;102203.66;5019646;28;20128;-34
2023/08/20 03:06:39;;;;;;;6.03;3.42;;;;;;;25.44;53.21;102205.53;5013744;28;20042;-34
2023/08/20 03:09:06;;;;;;;5.43;2.90;;;;;;;25.43;53.00;102207.41;5017432;28;20050;-34
2023/08/20 03:11:32;;;;;;;6.45;3.35;;;;;;;25.42;53.06;102213.84;5017082;28;20089;-34
2023/08/20 03:13:59;;;;;;;6.32;3.05;;;;;;;25.41;53.10;102220.31;5021340;28;20605;-34
2023/08/20 03:16:25;;;;;;;5.55;3.00;;;;;;;25.41;53.23;102227.56;5018865;28;20045;-34
2023/08/20 03:18:52;;;;;;;4.82;3.05;;;;;;;25.41;53.25;102224.84;5020864;28;20051;-34
2023/08/20 03:21:18;;;;;;;4.30;2.78;;;;;;;25.39;53.62;102225.03;5022257;28;20055;-34
2023/08/20 03:23:45;;;;;;;6.82;3.30;;;;;;;25.39;53.11;102230.47;5020875;28;20128;-34
2023/08/20 03:26:12;;;;;;;6.20;2.72;;;;;;;25.39;52.86;102226.91;5015421;28;20046;-34
2023/08/20 03:28:38;;;;;;;6.07;3.42;;;;;;;25.38;53.12;102222.50;5017526;28;20135;-34
2023/08/20 03:31:05;;;;;;;6.60;3.42;;;;;;;25.39;53.41;102235.06;5019987;28;20042;-34
2023/08/20 03:33:31;;;;;;;4.75;2.67;;;;;;;25.37;53.30;102240.66;5018620;28;20050;-34
2023/08/20 03:35:58;;;;;;;6.80;2.72;;;;;;;25.36;52.78;102238.94;5021839;28;20107;-34
2023/08/20 03:38:26;;;;;;;5.75;3.08;;;;;;;25.36;53.30;102236.22;5017428;28;20060;-34
2023/08/20 03:40:55;;;;;;;5.47;2.95;;;;;;;25.36;53.25;102238.94;5016532;28;20578;-34
2023/08/20 03:43:21;;;;;;;5.35;2.58;;;;;;;25.36;53.19;102233.50;5019121;28;20439;-34
2023/08/20 03:45:51;;;;;;;4.57;2.85;;;;;;;25.34;53.33;102238.28;5017610;28;20041;-34
2023/08/20 03:48:18;;;;;;;4.45;2.42;;;;;;;25.34;53.34;102243.69;5014263;28;20072;-34
2023/08/20 03:50:45;;;;;;;5.80;2.47;;;;;;;25.33;53.22;102247.44;5016822;28;20050;-34
2023/08/20 03:53:11;;;;;;;5.30;3.05;;;;;;;25.31;53.26;102244.88;5018081;28;20069;-34
2023/08/20 03:55:38;;;;;;;4.88;2.50;;;;;;;25.31;53.59;102244.03;5021139;28;20151;-34
2023/08/20 03:58:04;;;;;;;5.13;2.60;;;;;;;25.31;53.46;102249.47;5015253;28;20052;-34
2023/08/20 04:00:31;;;;;;;4.60;2.65;;;;;;;25.29;53.82;102251.50;5012474;28;20057;-34
2023/08/20 04:02:58;;;;;;;3.60;2.45;;;;;;;25.29;53.59;102246.94;5014891;28;20529;-34
2023/08/20 04:05:24;;;;;;;4.80;2.35;;;;;;;25.28;53.81;102250.63;5018299;28;20048;-34
2023/08/20 04:07:51;;;;;;;4.45;2.30;;;;;;;25.28;53.37;102247.06;5016712;28;20058;-35
2023/08/20 04:10:17;;;;;;;4.40;2.33;;;;;;;25.28;53.66;102255.22;5014836;28;20369;-34
2023/08/20 04:12:44;;;;;;;4.10;2.42;;;;;;;25.27;53.35;102258.97;5020905;28;20045;-34
2023/08/20 04:15:10;;;;;;;5.80;2.40;;;;;;;25.26;53.48;102254.56;5018054;28;20049;-34
2023/08/20 04:17:37;;;;;;;5.32;2.60;;;;;;;25.24;53.46;102257.41;5016446;28;20058;-34
2023/08/20 04:20:07;;;;;;;5.72;2.47;;;;;;;25.24;53.87;102262.00;5015708;28;20434;-34
2023/08/20 04:22:34;;;;;;;4.93;2.28;;;;;;;25.23;53.80;102263.88;5016216;28;20630;-34
2023/08/20 04:25:00;;;;;;;6.07;2.40;;;;;;;25.23;53.88;102263.03;5013977;28;20046;-34
2023/08/20 04:27:31;;;;;;;5.63;2.40;;;;;;;25.23;53.79;102263.03;5014318;28;20045;-34
2023/08/20 04:29:58;;;;;;;4.85;2.60;;;;;;;25.22;53.45;102270.31;5019718;28;20152;-34
2023/08/20 04:32:25;;;;;;;5.07;2.33;;;;;;;25.22;53.68;102270.31;5015978;28;20134;-34
2023/08/20 04:34:53;;;;;;;4.68;2.50;;;;;;;25.21;54.12;102274.06;5015922;28;20058;-34
2023/08/20 04:37:19;;;;;;;6.60;2.28;;;;;;;25.20;53.86;102274.19;5014674;28;20429;-34
2023/08/20 04:39:46;;;;;;;5.35;2.25;;;;;;;25.20;53.91;102272.34;5016417;28;20119;-34
2023/08/20 04:42:13;;;;;;;6.53;2.15;;;;;;;25.19;53.99;102272.50;5016745;28;20077;-34
2023/08/20 04:44:39;;;;;;;3.88;2.10;;;;;;;25.19;54.05;102289.63;5020310;28;20117;-34
2023/08/20 04:47:10;;;;;;;7.03;2.33;;;;;;;25.19;53.97;102289.63;5017212;28;20137;-34
2023/08/20 04:49:37;;;;;;;3.40;1.83;;;;;;;25.19;53.92;102288.78;5019997;28;20046;-34
2023/08/20 04:52:03;;;;;;;5.75;2.00;;;;;;;25.19;53.69;102296.94;5015606;28;20128;-34
2023/08/20 04:54:30;;;;;;;4.95;2.13;;;;;;;25.18;53.70;102297.97;5020198;28;20096;-34
2023/08/20 04:56:56;;;;;;;6.38;2.00;;;;;;;25.17;53.29;102296.25;5017514;28;20161;-34
2023/08/20 04:59:23;;;;;;;5.97;2.15;;;;;;;25.16;53.75;102292.69;5016056;28;20050;-34
2023/08/20 05:01:50;;;;;;;6.55;2.22;;;;;;;25.15;53.48;102290.97;5015590;28;20085;-34
2023/08/20 05:04:16;;;;;;;4.18;1.75;;;;;;;25.15;53.11;102292.84;5015602;28;20140;-34
2023/08/20 05:06:43;;;;;;;6.35;2.38;;;;;;;25.15;52.87;102295.56;5012240;28;20135;-34
2023/08/20 05:09:10;;;;;;;6.13;1.65;;;;;;;25.13;53.18;102295.75;5013018;28;20064;-34
2023/08/20 05:11:37;;;;;;;5.55;1.80;;;;;;;25.15;53.14;102295.56;5020911;28;20424;-34
2023/08/20 05:14:04;;;;;;;5.53;1.83;;;;;;;25.15;52.84;102293.69;5018155;28;20441;-34
2023/08/20 05:16:30;;;;;;;4.60;1.85;;;;;;;25.15;52.37;102298.28;5018041;28;20042;-34
2023/08/20 05:18:57;;;;;;;4.72;1.63;;;;;;;25.16;52.51;102291.84;5020358;28;20107;-34
2023/08/20 05:21:24;;;;;;;9.25;2.25;;;;;;;25.16;52.27;102292.69;5024161;28;20054;-34
2023/08/20 05:23:52;;;;;;;4.78;1.70;;;;;;;25.17;52.25;102291.69;5025539;28;20285;-34
2023/08/20 05:26:18;;;;;;;4.35;1.55;;;;;;;25.17;51.80;102296.25;5021217;28;20049;-34
2023/08/20 05:28:45;;;;;;;5.85;1.75;;;;;;;25.18;51.76;102295.25;5023101;28;20080;-34
2023/08/20 05:31:12;;;;;;;6.90;2.40;;;;;;;25.19;51.82;102300.50;5019933;28;20056;-34
2023/08/20 05:33:38;;;;;;;8.98;3.22;;;;;;;25.18;51.82;102292.53;5020706;28;20049;-34
2023/08/20 05:36:05;;;;;;;13.50;4.68;;;;;;;25.20;51.29;102296.75;5020891;28;20366;-34
2023/08/20 05:38:31;;;;;;;10.50;4.90;;;;;;;25.21;51.60;102292.22;5021401;28;20148;-34
2023/08/20 05:40:58;;;;;;;13.30;5.43;;;;;;;25.22;51.37;102299.31;5016612;28;20054;-34
2023/08/20 05:43:24;;;;;;;12.43;4.95;;;;;;;25.23;51.04;102301.00;5018351;28;20168;-34
2023/08/20 05:45:51;;;;;;;13.13;5.30;;;;;;;25.24;51.37;102300.84;5020827;28;21240;-34
2023/08/20 05:48:18;;;;;;;13.18;5.43;;;;;;;25.26;51.09;102306.13;5019458;28;20109;-34
2023/08/20 05:50:44;;;;;;;8.75;3.88;;;;;;;25.27;51.26;102296.94;5023563;28;20092;-34
2023/08/20 05:53:11;;;;;;;11.02;3.75;;;;;;;25.28;50.99;102302.19;5024598;28;20119;-34
2023/08/20 05:55:39;;;;;;;7.38;3.22;;;;;;;25.28;50.96;102291.34;5024911;28;20379;-34
2023/08/20 05:58:05;;;;;;;8.45;3.15;;;;;;;25.26;50.90;102296.09;5021474;28;20052;-34
2023/08/20 06:00:32;;;;;;;8.32;2.97;;;;;;;25.26;50.83;102295.25;5018296;28;20053;-34
2023/08/20 06:02:58;;;;;;;7.57;2.58;;;;;;;25.24;50.82;102292.69;5022859;28;20081;-34
2023/08/20 06:05:26;;;;;;;6.18;2.45;;;;;;;25.23;50.95;102287.44;5020964;28;20149;-34
2023/08/20 06:07:52;;;;;;;7.07;2.60;;;;;;;25.21;51.28;102297.63;5019426;28;20103;-34
2023/08/20 06:10:19;;;;;;;7.20;2.25;;;;;;;25.20;50.98;102293.19;5019570;28;20389;-34
2023/08/20 06:12:46;;;;;;;8.48;2.38;;;;;;;25.18;50.86;102295.25;5019673;28;20121;-34
2023/08/20 06:15:13;;;;;;;6.55;2.42;;;;;;;25.18;51.23;102297.97;5021154;28;20049;-34
2023/08/20 06:17:40;;;;;;;6.78;2.17;;;;;;;25.17;51.17;102296.25;5019761;28;20124;-34
2023/08/20 06:20:08;;;;;;;7.25;3.05;;;;;;;25.16;51.22;102294.53;5017811;28;20062;-34
2023/08/20 06:22:34;;;;;;;7.93;3.35;;;;;;;25.15;51.20;102290.97;5013896;28;20050;-35
2023/08/20 06:25:02;;;;;;;12.20;4.68;;;;;;;25.15;51.62;102295.56;5023509;28;20518;-34
2023/08/20 06:27:28;;;;;;;10.73;4.60;;;;;;;25.15;51.39;102293.69;5020630;28;20054;-34
2023/08/20 06:29:55;;;;;;;12.15;5.15;;;;;;;25.15;51.75;102293.69;5015874;28;20057;-34
2023/08/20 06:32:23;;;;;;;13.80;4.82;;;;;;;25.15;51.51;102301.00;5013704;28;20045;-34
2023/08/20 06:34:50;;;;;;;10.68;4.35;;;;;;;25.16;51.26;102294.53;5021660;28;20061;-34
2023/08/20 06:37:16;;;;;;;14.07;5.20;;;;;;;25.17;51.15;102296.25;5017679;28;20078;-34
2023/08/20 06:39:43;;;;;;;10.32;3.83;;;;;;;25.19;51.19;102299.66;5025217;28;20052;-34
2023/08/20 06:42:09;;;;;;;14.70;4.40;;;;;;;25.21;51.01;102300.34;5022760;28;20145;-34
2023/08/20 06:44:36;;;;;;;9.88;3.90;;;;;;;25.21;50.91;102301.19;5021023;28;20912;-34
2023/08/20 06:47:03;;;;;;;8.60;3.10;;;;;;;25.23;50.87;102306.44;5017705;28;20474;-34
2023/08/20 06:49:29;;;;;;;7.30;2.75;;;;;;;25.23;50.97;102301.00;5021237;28;20503;-34
2023/08/20 06:51:56;;;;;;;16.60;3.40;;;;;;;25.22;51.27;102311.03;5016921;28;20138;-34
2023/08/20 06:54:22;;;;;;;7.93;2.97;;;;;;;25.22;51.24;102302.03;5019037;28;20050;-34
2023/08/20 06:56:49;;;;;;;7.00;2.90;;;;;;;25.22;51.22;102308.31;5019895;28;20050;-34
2023/08/20 06:59:17;;;;;;;7.25;2.65;;;;;;;25.22;51.49;102310.19;5021202;28;20433;-34
2023/08/20 07:01:43;;;;;;;7.00;2.50;;;;;;;25.20;51.32;102298.63;5025043;28;20056;-34
2023/08/20 07:04:10;;;;;;;10.65;2.15;;;;;;;25.19;51.12;102303.22;5024247;28;20053;-34
2023/08/20 07:06:37;;;;;;;6.55;2.08;;;;;;;25.20;51.54;102304.91;5021262;28;20077;-34
2023/08/20 07:09:04;;;;;;;6.47;1.80;;;;;;;25.19;50.90;102310.50;5020173;28;20132;-35
2023/08/20 07:11:30;;;;;;;7.82;1.80;;;;;;;25.19;51.47;102311.34;5014361;28;20136;-34
2023/08/20 07:13:57;;;;;;;9.60;2.50;;;;;;;25.19;51.45;102316.78;5022916;28;20553;-34
2023/08/20 07:16:23;;;;;;;7.28;1.95;;;;;;;25.21;51.32;102316.63;5018413;28;20042;-34
2023/08/20 07:18:50;;;;;;;13.65;4.93;;;;;;;25.20;51.73;102320.34;5009297;28;20053;-35
2023/08/20 07:21:17;;;;;;;21.25;7.70;;;;;;;25.22;51.76;102326.47;5003824;28;20460;-35
2023/08/20 07:23:43;;;;;;;16.73;7.78;;;;;;;25.22;51.79;102324.59;5004271;28;20058;-34
2023/08/20 07:26:15;;;;;;;15.43;7.18;;;;;;;25.24;51.88;102327.13;5008040;28;20205;-35
2023/08/20 07:28:57;;;;;;;18.48;8.30;;;;;;;25.25;52.07;102326.13;5006871;28;20500;-35
2023/08/20 07:31:23;;;;;;;18.35;8.25;;;;;;;25.25;52.25;102332.41;4990230;28;20064;-36
2023/08/20 07:33:51;;;;;;;16.13;7.18;;;;;;;25.27;52.18;102334.94;5028022;28;20622;-35
2023/08/20 07:36:23;;;;;;;14.50;6.68;;;;;;;25.27;52.16;102335.78;5028445;28;20038;-35
2023/08/20 07:38:50;;;;;;;19.95;6.88;;;;;;;25.30;52.37;102340.91;5034712;28;20063;-35
2023/08/20 07:41:19;;;;;;;14.27;5.43;;;;;;;25.33;52.25;102345.16;5030466;28;20392;-35
2023/08/20 07:43:46;;;;;;;14.13;5.53;;;;;;;25.34;52.33;102344.97;5032384;28;20549;-35
2023/08/20 07:46:13;;;;;;;15.27;5.40;;;;;;;25.39;52.53;102343.63;5026918;28;20049;-36
2023/08/20 07:48:40;;;;;;;17.08;5.45;;;;;;;25.41;52.29;102338.88;5031499;28;20158;-36
2023/08/20 07:51:06;;;;;;;11.18;4.60;;;;;;;25.42;52.30;102341.44;4988792;28;20057;-36
2023/08/20 07:53:33;;;;;;;11.35;4.53;;;;;;;25.44;52.11;102347.53;5036991;28;20127;-36
2023/08/20 07:56:01;;;;;;;13.63;4.63;;;;;;;25.47;52.33;102343.66;5035229;28;20037;-36
2023/08/20 07:58:28;;;;;;;18.45;4.72;;;;;;;25.50;52.34;102340.59;5036425;28;20052;-36
2023/08/20 08:00:57;;;;;;;8.57;3.15;;;;;;;25.51;52.29;102347.72;5034431;28;20140;-36
2023/08/20 08:03:27;;;;;;;9.35;2.97;;;;;;;25.53;52.47;102354.69;5038091;28;20349;-36
2023/08/20 08:05:55;;;;;;;11.15;3.10;;;;;;;25.55;52.07;102359.94;5035192;28;20049;-36
2023/08/20 08:08:22;;;;;;;13.38;3.58;;;;;;;25.57;52.05;102363.38;5035468;28;20084;-36
2023/08/20 08:10:49;;;;;;;9.45;2.35;;;;;;;25.57;52.20;102366.06;4995227;28;21595;-36
2023/08/20 08:13:19;;;;;;;9.63;2.55;;;;;;;25.57;51.88;102360.66;5021549;28;20046;-36
2023/08/20 08:15:46;;;;;;;17.83;3.60;;;;;;;25.59;51.79;102359.44;5019081;28;20647;-36
2023/08/20 08:18:13;;;;;;;13.77;4.20;;;;;;;25.59;52.11;102367.59;5022239;28;20203;-36
2023/08/20 08:20:40;;;;;;;13.25;5.93;;;;;;;25.60;52.00;102360.28;5021855;28;20432;-36
2023/08/20 08:23:07;;;;;;;17.00;6.72;;;;;;;25.60;51.82;102366.56;5018809;28;20077;-36
2023/08/20 08:25:33;;;;;;;16.40;7.15;;;;;;;25.60;51.85;102369.28;5016746;28;20459;-36
2023/08/20 08:28:00;;;;;;;13.82;6.22;;;;;;;25.62;51.89;102366.41;5017798;28;20124;-36
2023/08/20 08:30:29;;;;;;;10.45;4.60;;;;;;;25.63;52.02;102376.25;4982639;28;20761;-36
2023/08/20 08:32:56;;;;;;;12.50;4.20;;;;;;;25.65;51.76;102368.81;5037590;28;20253;-36
2023/08/20 08:35:22;;;;;;;12.27;4.30;;;;;;;25.67;52.05;102374.06;5010848;28;20427;-36
2023/08/20 08:37:49;;;;;;;10.10;3.42;;;;;;;25.65;51.84;102366.09;5010500;28;20149;-36
2023/08/20 08:40:16;;;;;;;9.93;3.47;;;;;;;25.65;51.85;102368.81;5014842;28;20053;-36
2023/08/20 08:42:42;;;;;;;12.73;3.92;;;;;;;25.66;51.72;102366.94;5013868;28;20652;-36
2023/08/20 08:45:10;;;;;;;10.48;3.08;;;;;;;25.67;51.76;102368.63;5018126;28;20122;-36
2023/08/20 08:47:39;;;;;;;9.90;2.88;;;;;;;25.67;51.58;102371.34;5016939;28;20531;-36
2023/08/20 08:50:07;;;;;;;7.57;2.25;;;;;;;25.65;51.14;102370.66;5017644;28;20053;-36
2023/08/20 08:52:36;;;;;;;8.27;1.75;;;;;;;25.62;50.49;102371.84;4994218;28;20524;-36
2023/08/20 08:55:05;;;;;;;6.10;1.52;;;;;;;25.62;50.43;102369.13;5033700;28;20060;-34
2023/08/20 08:57:31;;;;;;;8.88;2.20;;;;;;;25.63;50.89;102368.13;5029213;28;20334;-35
2023/08/20 08:59:58;;;;;;;12.93;2.63;;;;;;;25.65;50.73;102370.66;5030045;28;20079;-35
2023/08/20 09:02:25;;;;;;;12.05;2.72;;;;;;;25.65;50.90;102371.53;5034857;28;20053;-36
2023/08/20 09:04:52;;;;;;;8.70;2.17;;;;;;;25.66;50.45;102369.66;5033198;28;20081;-35
2023/08/20 09:07:19;;;;;;;10.00;2.85;;;;;;;25.66;51.03;102373.22;5032319;28;20392;-35
2023/08/20 09:09:46;;;;;;;12.75;2.35;;;;;;;25.68;50.83;102373.03;5035219;28;20134;-35
2023/08/20 09:12:16;;;;;;;9.77;1.95;;;;;;;25.68;50.37;102371.16;4990226;28;20060;-35
2023/08/20 09:14:49;;;;;;;8.98;2.22;;;;;;;25.71;50.61;102380.84;5012325;28;20054;-35
2023/08/20 09:17:16;;;;;;;6.30;2.38;;;;;;;25.72;50.90;102374.41;5007501;28;20061;-35
2023/08/20 09:19:44;;;;;;;13.45;2.50;;;;;;;25.73;50.63;102384.25;5010363;28;20349;-35
2023/08/20 09:22:15;;;;;;;8.00;2.47;;;;;;;25.74;50.80;102381.38;5010599;28;20060;-35
2023/08/20 09:24:46;;;;;;;6.35;2.20;;;;;;;25.76;50.83;102383.91;5010572;28;20073;-35
2023/08/20 09:27:13;;;;;;;7.65;1.80;;;;;;;25.79;50.67;102381.75;5008193;28;20408;-35
2023/08/20 09:29:51;;;;;;;9.63;1.95;;;;;;;25.82;49.76;102377.84;5010856;28;20057;-35
2023/08/20 09:32:20;;;;;;;8.30;1.80;;;;;;;25.83;50.16;102376.81;4974478;28;20468;-35
2023/08/20 09:34:49;;;;;;;5.65;1.85;;;;;;;25.86;49.95;102378.38;5010212;28;20152;-35
2023/08/20 09:37:17;;;;;;;6.32;1.70;;;;;;;25.89;49.93;102380.72;5005363;28;20151;-35
2023/08/20 09:39:43;;;;;;;7.32;2.72;;;;;;;25.90;49.95;102379.72;5009015;28;20046;-35
2023/08/20 09:42:11;;;;;;;9.32;2.17;;;;;;;25.89;49.78;102380.72;5009689;28;20049;-35
2023/08/20 09:44:48;;;;;;;8.65;1.90;;;;;;;25.87;49.55;102385.50;5008527;28;20049;-35
2023/08/20 09:47:20;;;;;;;9.30;2.40;;;;;;;25.92;49.75;102380.41;5008807;28;20621;-35
2023/08/20 09:49:48;;;;;;;7.13;2.15;;;;;;;25.99;49.68;102381.41;5005330;28;20053;-35
2023/08/20 09:52:21;;;;;;;9.63;1.88;;;;;;;26.02;49.47;102384.66;4963336;28;20334;-35
2023/08/20 09:55:07;;;;;;;7.25;2.60;;;;;;;26.05;49.42;102378.00;5011351;28;20046;-35
2023/08/20 09:57:39;;;;;;;11.32;4.20;;;;;;;26.09;49.35;102382.97;5011564;28;20042;-35
2023/08/20 10:00:11;;;;;;;13.30;2.70;;;;;;;26.18;49.20;102383.81;5006761;28;20049;-35
2023/08/20 10:02:38;;;;;;;10.05;3.35;;;;;;;26.24;48.80;102385.81;5010073;28;20176;-35
2023/08/20 10:05:06;;;;;;;12.45;6.40;;;;;;;26.29;48.77;102396.19;5009553;28;20143;-35
2023/08/20 10:07:32;;;;;;;8.10;3.33;;;;;;;26.30;48.39;102393.31;5008310;28;20046;-35
2023/08/20 10:10:05;;;;;;;7.72;2.47;;;;;;;26.30;48.09;102389.75;4983120;28;20622;-36
2023/08/20 10:12:33;;;;;;;8.27;3.08;;;;;;;26.32;48.19;102395.84;5018371;28;20080;-35
2023/08/20 10:15:00;;;;;;;9.63;3.05;;;;;;;26.34;48.17;102391.09;5035178;28;20475;-35
2023/08/20 10:17:32;;;;;;;6.22;2.45;;;;;;;26.37;48.29;102387.16;5039268;28;20432;-35
2023/08/20 10:20:04;;;;;;;13.03;2.33;;;;;;;26.40;47.98;102387.69;5038010;28;20403;-35
2023/08/20 10:22:38;;;;;;;7.45;2.47;;;;;;;26.44;47.85;102388.19;5037168;28;20057;-36
2023/08/20 10:25:09;;;;;;;6.38;2.05;;;;;;;26.47;47.69;102386.00;5040438;28;20049;-36
2023/08/20 10:27:38;;;;;;;6.07;1.60;;;;;;;26.47;47.69;102391.44;5037312;28;20506;-36
2023/08/20 10:30:15;;;;;;;4.68;1.42;;;;;;;26.44;46.82;102377.31;5035643;28;20088;-36
2023/08/20 10:32:50;;;;;;;8.20;1.60;;;;;;;26.42;46.26;102382.94;5008633;28;20457;-36
2023/08/20 10:35:28;;;;;;;8.82;1.60;;;;;;;26.45;46.75;102392.63;5036218;28;20061;-36
2023/08/20 10:38:02;;;;;;;11.05;2.03;;;;;;;26.47;46.69;102382.44;5034503;28;20071;-36
2023/08/20 10:40:47;;;;;;;6.53;1.30;;;;;;;26.49;46.89;102381.25;5037772;28;20451;-36
2023/08/20 10:43:59;;;;;;;7.90;1.52;;;;;;;26.57;46.13;102383.97;5038760;28;20150;-36
2023/08/20 10:46:30;;;;;;;6.78;1.20;;;;;;;26.61;46.43;102375.44;5034223;28;20080;-36
2023/08/20 10:48:58;;;;;;;4.82;0.98;;;;;;;26.62;46.02;102379.88;5035843;28;20451;-36
2023/08/20 10:51:26;;;;;;;6.32;1.60;;;;;;;26.61;45.94;102383.59;4994167;28;20049;-36
2023/08/20 10:54:05;;;;;;;6.63;1.50;;;;;;;26.63;45.76;102376.97;5035454;28;20129;-36
2023/08/20 10:56:40;;;;;;;5.55;2.03;;;;;;;26.65;45.76;102380.34;5038344;28;20179;-36
2023/08/20 10:59:09;;;;;;;7.55;1.80;;;;;;;26.70;45.91;102377.13;5038297;28;20403;-36
2023/08/20 11:01:35;;;;;;;6.22;2.00;;;;;;;26.74;46.01;102394.81;5038798;28;20140;-36
2023/08/20 11:04:06;;;;;;;10.05;2.42;;;;;;;26.77;46.20;102386.28;5039499;28;20049;-36
2023/08/20 11:06:33;;;;;;;6.50;1.45;;;;;;;26.77;46.05;102389.84;5036133;28;20057;-36
2023/08/20 11:09:00;;;;;;;6.78;1.30;;;;;;;26.77;45.56;102383.53;5036327;28;20135;-37
2023/08/20 11:11:26;;;;;;;4.35;1.42;;;;;;;26.80;45.77;102386.78;4999966;28;20060;-36
2023/08/20 11:13:53;;;;;;;4.43;1.20;;;;;;;26.86;46.04;102379.81;5037880;28;20057;-36
2023/08/20 11:16:20;;;;;;;4.82;1.23;;;;;;;26.92;45.09;102383.69;5039864;28;20049;-36
2023/08/20 11:18:47;;;;;;;6.68;1.30;;;;;;;26.95;44.56;102391.50;5040229;28;20055;-36
2023/08/20 11:21:13;;;;;;;4.55;1.23;;;;;;;26.93;45.29;102388.94;5039959;28;20436;-36
2023/08/20 11:23:41;;;;;;;5.47;1.40;;;;;;;26.92;45.34;102387.25;5035904;28;20057;-36
2023/08/20 11:26:08;;;;;;;5.75;1.40;;;;;;;26.90;45.65;102386.59;5037214;28;20145;-36
2023/08/20 11:28:34;;;;;;;7.75;2.05;;;;;;;26.92;45.88;102384.53;5040751;28;20133;-36